KCLT/CLT METAR and TAF weather

Enter ICAO airport designator
Station Type Date Time Source
KCLT METAR 2019/06/26 09:52 UTC NOAA

KCLT 260952Z 33005KT 10SM CLR 21/17 A3014 RMK AO2 SLP196 T02060167


Station Type Date Time Source
KCLT Decoded METAR 2019/06/26 09:52 UTC NOAA

CHARLOTTE/DOUGLAS INTERNATIONAL , NC, United States (KCLT) 35-13N 80-57W 220M
Jun 26, 2019 - 05:52 AM EDT / 2019.06.26 0952 UTC
Wind: from the NNW (330 degrees) at 6 MPH (5 KT):0
Visibility: 10 mile(s):0
Sky conditions: clear
Temperature: 69.1 F (20.6 C)
Dew Point: 62.1 F (16.7 C)
Relative Humidity: 78%
Pressure (altimeter): 30.14 in. Hg (1020 hPa)
ob: KCLT 260952Z 33005KT 10SM CLR 21/17 A3014 RMK AO2 SLP196 T02060167
cycle: 10

Station Type Date Time Source
KCLT TAF 2019/06/26 08:36 UTC NOAA

TAF
AMD KCLT 260733Z 2608/2712 35004KT P6SM BKN250
FM261400 02006KT P6SM BKN250
FM262300 VRB03KT P6SM SCT200

Example: see airport list